createdAt,value
2023-03-08T00:02:41.648Z,-4.64
2023-03-08T00:08:04.069Z,-4.78
2023-03-08T00:13:28.671Z,-4.91
2023-03-08T00:18:50.675Z,-5.27
2023-03-08T00:24:13.422Z,-5.60
2023-03-08T00:29:35.539Z,-6.07
2023-03-08T00:34:57.828Z,-6.17
2023-03-08T00:40:20.132Z,-6.40
2023-03-08T00:45:41.798Z,-6.47
2023-03-08T00:51:04.314Z,-6.30
2023-03-08T00:56:28.803Z,-6.22
2023-03-08T01:01:51.768Z,-5.99
2023-03-08T01:07:13.786Z,-5.82
2023-03-08T01:12:36.844Z,-5.87
2023-03-08T01:17:58.931Z,-5.94
2023-03-08T01:23:20.902Z,-5.56
2023-03-08T01:28:43.466Z,-5.41
2023-03-08T01:34:10.652Z,-5.32
2023-03-08T01:39:32.899Z,-5.17
2023-03-08T01:45:06.835Z,-5.14
2023-03-08T01:50:30.270Z,-5.09
2023-03-08T01:55:52.447Z,-5.10
2023-03-08T02:01:15.699Z,-5.02
2023-03-08T02:06:38.390Z,-4.88
2023-03-08T02:12:04.908Z,-4.90
2023-03-08T02:17:27.601Z,-4.62
2023-03-08T02:22:53.714Z,-4.62
2023-03-08T02:28:15.936Z,-4.58
2023-03-08T02:33:42.379Z,-4.54
2023-03-08T02:39:04.483Z,-4.69
2023-03-08T02:44:26.810Z,-4.42
2023-03-08T02:49:48.667Z,-4.48
2023-03-08T02:55:11.184Z,-4.36
2023-03-08T03:00:34.698Z,-4.14
2023-03-08T03:05:57.207Z,-4.27
2023-03-08T03:11:25.909Z,-4.38
2023-03-08T03:16:48.581Z,-4.22
2023-03-08T03:22:11.396Z,-4.26
2023-03-08T03:27:33.753Z,-4.37
2023-03-08T03:32:55.831Z,-4.44
2023-03-08T03:38:22.344Z,-4.55
2023-03-08T03:43:45.129Z,-4.32
2023-03-08T03:49:11.951Z,-4.23
2023-03-08T03:54:40.111Z,-4.30
2023-03-08T04:00:07.755Z,-4.23
2023-03-08T04:05:37.736Z,-4.20
2023-03-08T04:11:03.196Z,-4.31
2023-03-08T04:16:34.081Z,-4.40
2023-03-08T04:21:59.939Z,-4.42
2023-03-08T04:27:28.198Z,-4.25
2023-03-08T04:32:50.083Z,-4.30
2023-03-08T04:38:12.795Z,-4.34
2023-03-08T04:43:35.668Z,-4.25
2023-03-08T04:49:01.554Z,-4.14
2023-03-08T04:54:29.036Z,-3.93
2023-03-08T04:59:58.205Z,-4.06
2023-03-08T05:05:21.478Z,-3.94
2023-03-08T05:11:03.147Z,-3.70
2023-03-08T05:16:28.875Z,-3.85
2023-03-08T05:21:51.932Z,-3.75
2023-03-08T05:27:17.583Z,-3.68
2023-03-08T05:32:43.611Z,-3.68
2023-03-08T05:38:06.071Z,-3.68
2023-03-08T05:43:28.864Z,-3.51
2023-03-08T05:48:51.431Z,-3.53
2023-03-08T05:54:14.679Z,-3.52
2023-03-08T05:59:39.856Z,-3.35
2023-03-08T06:05:05.713Z,-3.40
2023-03-08T06:10:28.710Z,-3.37
2023-03-08T06:15:58.794Z,-3.25
2023-03-08T06:21:22.703Z,-3.09
2023-03-08T06:26:52.318Z,-2.96
2023-03-08T06:32:14.406Z,-2.96
2023-03-08T06:37:36.694Z,-2.82
2023-03-08T06:43:01.318Z,-3.05
2023-03-08T06:48:23.803Z,-2.69
2023-03-08T06:53:47.959Z,-2.54
2023-03-08T06:59:15.224Z,-2.39
2023-03-08T07:04:37.169Z,-2.59
2023-03-08T07:09:59.071Z,-2.64
2023-03-08T07:15:24.724Z,-2.79
2023-03-08T07:20:58.967Z,-2.62
2023-03-08T07:26:20.771Z,-2.51
2023-03-08T07:31:46.119Z,-2.71
2023-03-08T07:37:16.840Z,-2.49
2023-03-08T07:42:38.996Z,-2.54
2023-03-08T07:48:15.431Z,-2.85
2023-03-08T07:53:38.020Z,-3.04
2023-03-08T07:59:00.947Z,-2.95
2023-03-08T08:04:23.883Z,-2.81
2023-03-08T08:09:45.926Z,-2.78
2023-03-08T08:15:08.591Z,-2.66
2023-03-08T08:20:31.320Z,-2.47
2023-03-08T08:25:54.177Z,-2.57
2023-03-08T08:31:19.033Z,-2.12
2023-03-08T08:36:41.065Z,-1.70
2023-03-08T08:42:04.356Z,-1.78
2023-03-08T08:47:32.044Z,-1.91
2023-03-08T08:52:54.037Z,-1.86
2023-03-08T08:58:18.900Z,-1.81
2023-03-08T09:03:40.834Z,-1.72
2023-03-08T09:09:03.216Z,-1.72
2023-03-08T09:14:26.399Z,-1.79
2023-03-08T09:19:48.648Z,-1.42
2023-03-08T09:25:11.984Z,-1.43
2023-03-08T09:30:34.663Z,-1.38
2023-03-08T09:35:58.153Z,-1.36
2023-03-08T09:41:22.046Z,-1.19
2023-03-08T09:47:11.877Z,-0.95
2023-03-08T09:52:41.582Z,-0.88
2023-03-08T09:58:20.319Z,-0.85
2023-03-08T10:04:16.312Z,-0.78
2023-03-08T10:09:45.476Z,-0.91
2023-03-08T10:15:18.427Z,-0.86
2023-03-08T10:20:42.477Z,-0.52
2023-03-08T10:26:10.646Z,-0.56
2023-03-08T10:31:34.311Z,-0.44
2023-03-08T10:37:06.931Z,-0.45
2023-03-08T10:42:29.574Z,-0.51
2023-03-08T10:48:02.823Z,-0.60
2023-03-08T10:53:24.931Z,-0.45
2023-03-08T10:58:48.908Z,-0.53
2023-03-08T11:04:15.762Z,-0.41
2023-03-08T11:09:37.934Z,-0.50
2023-03-08T11:14:59.932Z,-0.40
2023-03-08T11:20:57.147Z,-0.22
2023-03-08T11:26:50.191Z,-0.26
2023-03-08T11:32:40.357Z,-0.24
2023-03-08T11:38:22.692Z,-0.28
2023-03-08T11:44:10.065Z,-0.31
2023-03-08T11:49:53.908Z,-0.38
2023-03-08T11:55:43.382Z,-0.50
2023-03-08T12:01:15.708Z,-0.72
2023-03-08T12:06:44.752Z,-0.60
2023-03-08T12:12:19.622Z,-0.76
2023-03-08T12:17:47.321Z,-0.84
2023-03-08T12:23:22.318Z,-0.56
2023-03-08T12:28:59.113Z,-0.54
2023-03-08T12:34:38.635Z,-0.67
2023-03-08T12:40:09.010Z,-1.06
2023-03-08T12:45:37.632Z,-1.02
2023-03-08T12:51:03.380Z,-1.14
2023-03-08T12:56:31.995Z,-1.29
2023-03-08T13:02:00.389Z,-1.24
2023-03-08T13:07:32.918Z,-1.18
2023-03-08T13:13:10.194Z,-0.86
2023-03-08T13:18:32.402Z,-1.07
2023-03-08T13:24:05.084Z,-1.20
2023-03-08T13:29:32.988Z,-1.32
2023-03-08T13:35:03.801Z,-1.32
2023-03-08T13:40:26.779Z,-1.38
2023-03-08T13:45:52.074Z,-1.31
2023-03-08T13:51:21.090Z,-1.37
2023-03-08T13:56:43.403Z,-1.43
2023-03-08T14:02:27.001Z,-1.53
2023-03-08T14:08:07.317Z,-1.48
2023-03-08T14:13:37.849Z,-1.71
2023-03-08T14:19:09.669Z,-1.77
2023-03-08T14:24:34.846Z,-1.74
2023-03-08T14:30:13.243Z,-2.06
2023-03-08T14:35:42.394Z,-2.16
2023-03-08T14:41:12.600Z,-2.10
2023-03-08T14:46:35.071Z,-2.30
2023-03-08T14:51:57.606Z,-2.40
2023-03-08T14:57:22.548Z,-2.31
2023-03-08T15:02:45.005Z,-2.44
2023-03-08T15:08:11.152Z,-2.62
2023-03-08T15:13:33.366Z,-2.89
2023-03-08T15:18:55.608Z,-2.77
2023-03-08T15:24:19.257Z,-2.79
2023-03-08T15:29:41.454Z,-2.89
2023-03-08T15:35:03.635Z,-2.93
2023-03-08T15:40:28.814Z,-3.16
2023-03-08T15:45:50.911Z,-2.97
2023-03-08T15:51:24.965Z,-3.03
2023-03-08T15:56:48.744Z,-3.34
2023-03-08T16:02:20.024Z,-3.28
2023-03-08T16:07:43.059Z,-3.04
2023-03-08T16:13:05.646Z,-3.18
2023-03-08T16:18:29.743Z,-3.15
2023-03-08T16:23:53.359Z,-3.18
2023-03-08T16:29:15.518Z,-3.16
2023-03-08T16:34:38.397Z,-3.06
2023-03-08T16:40:02.536Z,-3.17
2023-03-08T16:45:25.176Z,-3.17
2023-03-08T16:50:56.273Z,-3.02
2023-03-08T16:56:26.581Z,-3.25
2023-03-08T17:01:51.084Z,-3.14
2023-03-08T17:07:14.290Z,-3.27
2023-03-08T17:12:36.576Z,-3.27
2023-03-08T17:17:59.189Z,-3.31
2023-03-08T17:23:22.867Z,-3.16
2023-03-08T17:28:45.334Z,-3.35
2023-03-08T17:34:10.628Z,-3.31
2023-03-08T17:39:33.135Z,-3.23
2023-03-08T17:44:55.218Z,-3.31
2023-03-08T17:50:23.133Z,-3.16
2023-03-08T17:55:45.607Z,-3.18
2023-03-08T18:01:09.529Z,-3.13
2023-03-08T18:06:41.449Z,-3.23
2023-03-08T18:12:06.500Z,-3.12
2023-03-08T18:17:28.123Z,-3.01
2023-03-08T18:22:51.359Z,-3.16
2023-03-08T18:28:13.467Z,-3.03
2023-03-08T18:33:35.373Z,-3.07
2023-03-08T18:38:57.429Z,-3.08
2023-03-08T18:44:19.759Z,-2.97
2023-03-08T18:49:44.590Z,-3.00
2023-03-08T18:55:07.766Z,-2.81
2023-03-08T19:00:29.785Z,-2.90
2023-03-08T19:05:51.704Z,-2.84
2023-03-08T19:11:13.577Z,-2.85
2023-03-08T19:22:17.181Z,-2.97
2023-03-08T19:27:45.387Z,-2.85
2023-03-08T19:33:18.463Z,-3.01
2023-03-08T19:38:51.005Z,-3.16
2023-03-08T19:44:13.233Z,-3.03
2023-03-08T19:49:39.576Z,-2.88
2023-03-08T19:55:02.594Z,-2.94
2023-03-08T20:00:31.237Z,-2.93
2023-03-08T20:05:58.093Z,-3.01
2023-03-08T20:12:17.957Z,-2.86
2023-03-08T20:17:48.287Z,-2.93
2023-03-08T20:23:11.601Z,-2.93
2023-03-08T20:28:34.050Z,-2.82
2023-03-08T20:33:57.018Z,-2.91
2023-03-08T20:39:23.232Z,-2.87
2023-03-08T20:44:46.232Z,-2.86
2023-03-08T20:50:08.988Z,-2.84
2023-03-08T20:55:30.907Z,-2.82
2023-03-08T21:00:53.578Z,-2.73
2023-03-08T21:06:22.781Z,-2.63
2023-03-08T21:12:34.083Z,-2.52
2023-03-08T21:18:08.853Z,-2.46
2023-03-08T21:24:00.188Z,-2.76
2023-03-08T21:29:34.995Z,-2.37
2023-03-08T21:35:36.368Z,-2.45
2023-03-08T21:47:06.336Z,-2.34
2023-03-08T22:04:16.856Z,-2.15
2023-03-08T22:10:09.906Z,-2.14
2023-03-08T22:15:32.167Z,-1.95
2023-03-08T22:20:57.240Z,-1.80
2023-03-08T22:26:20.530Z,-1.79
2023-03-08T22:31:42.486Z,-1.54
2023-03-08T22:37:05.661Z,-1.43
2023-03-08T22:42:27.190Z,-1.46
2023-03-08T22:47:51.550Z,-1.48
2023-03-08T22:53:13.189Z,-1.22
2023-03-08T22:58:35.301Z,-1.19
2023-03-08T23:04:00.043Z,-1.08
2023-03-08T23:09:24.242Z,-1.03
2023-03-08T23:14:46.373Z,-0.97
2023-03-08T23:20:08.958Z,-1.09
2023-03-08T23:25:31.399Z,-0.85
2023-03-08T23:30:54.272Z,-0.82
2023-03-08T23:36:21.796Z,-0.94
2023-03-08T23:41:45.863Z,-0.92
2023-03-08T23:47:08.372Z,-0.90
2023-03-08T23:52:30.285Z,-0.94
2023-03-08T23:57:52.553Z,-1.21
